createdAt,value
2023-09-27T00:00:14.953Z,16.07
2023-09-27T00:02:45.005Z,15.93
2023-09-27T00:05:13.517Z,14.87
2023-09-27T00:07:43.206Z,13.50
2023-09-27T00:10:13.339Z,14.37
2023-09-27T00:12:44.216Z,13.73
2023-09-27T00:15:13.251Z,16.07
2023-09-27T00:17:42.562Z,14.23
2023-09-27T00:20:13.506Z,13.30
2023-09-27T00:22:41.087Z,14.83
2023-09-27T00:25:10.840Z,14.50
2023-09-27T00:27:38.683Z,14.20
2023-09-27T00:30:08.493Z,12.80
2023-09-27T00:32:36.014Z,13.50
2023-09-27T00:35:05.265Z,13.13
2023-09-27T00:37:35.846Z,14.27
2023-09-27T00:40:04.941Z,13.83
2023-09-27T00:42:32.412Z,16.07
2023-09-27T00:45:00.037Z,13.97
2023-09-27T00:47:27.858Z,14.93
2023-09-27T00:49:55.613Z,12.80
2023-09-27T00:52:24.297Z,14.37
2023-09-27T00:54:52.411Z,12.83
2023-09-27T00:57:20.332Z,15.10
2023-09-27T00:59:48.113Z,14.60
2023-09-27T01:02:16.003Z,12.77
2023-09-27T01:04:44.551Z,14.63
2023-09-27T01:07:11.815Z,14.07
2023-09-27T01:09:39.667Z,14.03
2023-09-27T01:12:06.994Z,12.60
2023-09-27T01:14:34.518Z,12.80
2023-09-27T01:17:11.669Z,13.93
2023-09-27T01:19:40.208Z,13.83
2023-09-27T01:22:08.854Z,12.20
2023-09-27T01:24:39.165Z,14.10
2023-09-27T01:27:07.524Z,14.80
2023-09-27T01:29:35.003Z,13.93
2023-09-27T01:32:02.525Z,14.90
2023-09-27T01:34:30.142Z,15.23
2023-09-27T01:36:59.168Z,16.90
2023-09-27T01:39:27.266Z,15.90
2023-09-27T01:41:54.811Z,16.50
2023-09-27T01:44:23.540Z,15.67
2023-09-27T01:46:52.725Z,14.70
2023-09-27T01:49:20.394Z,15.77
2023-09-27T01:51:49.245Z,14.40
2023-09-27T01:54:16.832Z,14.30
2023-09-27T01:56:45.461Z,15.07
2023-09-27T01:59:13.003Z,15.33
2023-09-27T02:01:40.634Z,15.17
2023-09-27T02:04:08.674Z,15.53
2023-09-27T02:06:36.175Z,15.00
2023-09-27T02:09:04.857Z,17.00
2023-09-27T02:11:32.427Z,16.00
2023-09-27T02:14:03.151Z,16.60
2023-09-27T02:16:30.812Z,16.87
2023-09-27T02:18:58.731Z,15.77
2023-09-27T02:21:26.465Z,16.53
2023-09-27T02:23:55.280Z,16.83
2023-09-27T02:26:24.304Z,16.40
2023-09-27T02:28:51.898Z,16.40
2023-09-27T02:31:19.775Z,16.43
2023-09-27T02:33:47.442Z,15.83
2023-09-27T02:36:18.426Z,16.33
2023-09-27T02:38:45.801Z,15.93
2023-09-27T02:41:13.172Z,19.43
2023-09-27T02:43:41.620Z,17.80
2023-09-27T02:46:09.067Z,17.83
2023-09-27T02:48:37.418Z,18.90
2023-09-27T02:51:04.798Z,17.97
2023-09-27T02:53:32.128Z,17.73
2023-09-27T02:55:59.933Z,16.23
2023-09-27T02:58:27.685Z,16.90
2023-09-27T03:00:58.382Z,20.93
2023-09-27T03:03:25.955Z,15.83
2023-09-27T03:05:53.757Z,16.80
2023-09-27T03:08:21.042Z,15.77
2023-09-27T03:10:49.261Z,16.60
2023-09-27T03:13:17.399Z,18.30
2023-09-27T03:15:45.713Z,16.40
2023-09-27T03:18:13.359Z,20.20
2023-09-27T03:20:41.796Z,18.33
2023-09-27T03:23:09.118Z,17.63
2023-09-27T03:25:36.711Z,18.50
2023-09-27T03:28:04.055Z,17.53
2023-09-27T03:30:31.310Z,18.17
2023-09-27T03:32:58.707Z,17.60
2023-09-27T03:35:26.098Z,17.50
2023-09-27T03:37:53.459Z,16.67
2023-09-27T03:40:20.937Z,17.30
2023-09-27T03:42:48.457Z,18.70
2023-09-27T03:45:17.366Z,17.67
2023-09-27T03:47:46.917Z,19.80
2023-09-27T03:50:19.316Z,17.90
2023-09-27T03:52:47.132Z,18.60
2023-09-27T03:55:14.780Z,17.87
2023-09-27T03:57:42.502Z,17.83
2023-09-27T04:00:19.603Z,19.33
2023-09-27T04:02:48.937Z,23.03
2023-09-27T04:05:18.318Z,16.00
2023-09-27T04:07:45.758Z,14.60
2023-09-27T04:10:13.091Z,17.00
2023-09-27T04:12:40.355Z,14.53
2023-09-27T04:15:09.570Z,16.03
2023-09-27T04:17:41.023Z,19.13
2023-09-27T04:20:19.772Z,19.47
2023-09-27T04:22:48.586Z,19.53
2023-09-27T04:25:16.768Z,15.67
2023-09-27T04:27:47.203Z,20.80
2023-09-27T04:30:20.491Z,24.20
2023-09-27T04:32:48.924Z,18.20
2023-09-27T04:35:16.504Z,21.80
2023-09-27T04:37:43.918Z,23.17
2023-09-27T04:40:15.362Z,19.23
2023-09-27T04:42:43.571Z,19.37
2023-09-27T04:45:12.187Z,24.70
2023-09-27T04:47:40.689Z,23.03
2023-09-27T04:50:14.026Z,16.60
2023-09-27T04:52:41.584Z,21.47
2023-09-27T04:55:14.209Z,22.53
2023-09-27T04:57:41.858Z,19.67
2023-09-27T05:00:15.438Z,23.13
2023-09-27T05:02:43.371Z,22.03
2023-09-27T05:05:10.884Z,23.60
2023-09-27T05:07:38.579Z,23.00
2023-09-27T05:10:07.118Z,23.33
2023-09-27T05:12:35.138Z,24.07
2023-09-27T05:15:02.509Z,23.97
2023-09-27T05:17:30.762Z,19.90
2023-09-27T05:19:58.178Z,18.50
2023-09-27T05:22:25.809Z,21.23
2023-09-27T05:24:53.375Z,17.40
2023-09-27T05:27:21.661Z,19.37
2023-09-27T05:29:49.556Z,21.60
2023-09-27T05:32:16.898Z,19.70
2023-09-27T05:34:44.861Z,20.30
2023-09-27T05:37:12.200Z,26.50
2023-09-27T05:39:39.986Z,18.83
2023-09-27T05:42:08.863Z,21.37
2023-09-27T05:44:36.352Z,19.60
2023-09-27T05:47:04.018Z,22.47
2023-09-27T05:49:32.501Z,25.73
2023-09-27T05:52:00.051Z,21.37
2023-09-27T05:54:27.459Z,18.33
2023-09-27T05:56:56.931Z,23.00
2023-09-27T05:59:27.857Z,20.60
2023-09-27T06:01:56.128Z,18.43
2023-09-27T06:04:23.445Z,21.73
2023-09-27T06:06:50.995Z,19.87
2023-09-27T06:09:20.155Z,21.27
2023-09-27T06:11:47.893Z,19.70
2023-09-27T06:14:15.813Z,19.53
2023-09-27T06:16:47.392Z,19.03
2023-09-27T06:19:16.977Z,19.73
2023-09-27T06:21:46.521Z,20.40
2023-09-27T06:24:13.792Z,20.80
2023-09-27T06:26:42.316Z,21.27
2023-09-27T06:29:10.958Z,29.47
2023-09-27T06:31:38.839Z,23.37
2023-09-27T06:34:06.046Z,19.40
2023-09-27T06:36:36.158Z,19.47
2023-09-27T06:39:04.131Z,22.93
2023-09-27T06:41:31.400Z,21.07
2023-09-27T06:43:58.597Z,20.90
2023-09-27T06:46:27.749Z,20.23
2023-09-27T06:48:57.283Z,18.23
2023-09-27T06:51:25.597Z,24.13
2023-09-27T06:53:53.775Z,20.20
2023-09-27T06:56:21.102Z,19.17
2023-09-27T06:58:48.418Z,23.40
2023-09-27T07:01:16.214Z,22.40
2023-09-27T07:03:43.650Z,20.13
2023-09-27T07:06:11.921Z,22.73
2023-09-27T07:08:39.596Z,27.73
2023-09-27T07:11:10.594Z,20.10
2023-09-27T07:13:42.633Z,21.83
2023-09-27T07:16:29.126Z,24.20
2023-09-27T07:19:00.433Z,18.43
2023-09-27T07:21:29.239Z,18.10
2023-09-27T07:23:56.881Z,19.07
2023-09-27T07:26:24.101Z,19.10
2023-09-27T07:28:51.874Z,18.47
2023-09-27T07:31:19.580Z,16.53
2023-09-27T07:33:56.092Z,16.83
2023-09-27T07:36:26.095Z,19.00
2023-09-27T07:38:53.688Z,16.97
2023-09-27T07:41:21.521Z,20.70
2023-09-27T07:43:49.293Z,16.30
2023-09-27T07:46:18.823Z,16.67
2023-09-27T07:48:46.180Z,19.97
2023-09-27T07:51:14.088Z,23.23
2023-09-27T07:53:42.564Z,18.50
2023-09-27T07:56:12.172Z,18.90
2023-09-27T07:58:43.019Z,17.27
2023-09-27T08:01:10.386Z,16.57
2023-09-27T08:03:39.681Z,17.70
2023-09-27T08:06:08.502Z,21.90
2023-09-27T08:08:36.062Z,18.60
2023-09-27T08:11:04.354Z,23.37
2023-09-27T08:13:33.015Z,18.03
2023-09-27T08:16:00.240Z,20.27
2023-09-27T08:18:27.423Z,17.13
2023-09-27T08:20:56.092Z,15.10
2023-09-27T08:23:23.486Z,17.53
2023-09-27T08:25:54.115Z,14.97
2023-09-27T08:28:24.306Z,17.53
2023-09-27T08:30:51.672Z,17.63
2023-09-27T08:33:18.947Z,15.10
2023-09-27T08:35:46.849Z,14.37
2023-09-27T08:38:14.274Z,13.97
2023-09-27T08:40:41.852Z,17.53
2023-09-27T08:43:09.144Z,20.80
2023-09-27T08:45:39.145Z,17.50
2023-09-27T08:48:08.128Z,20.77
2023-09-27T08:50:36.310Z,18.50
2023-09-27T08:53:03.910Z,24.77
2023-09-27T08:55:31.297Z,16.90
2023-09-27T08:57:58.706Z,17.30
2023-09-27T09:00:28.089Z,15.63
2023-09-27T09:02:59.854Z,19.20
2023-09-27T09:05:30.282Z,18.50
2023-09-27T09:07:58.764Z,15.83
2023-09-27T09:10:26.185Z,21.00
2023-09-27T09:12:53.681Z,17.30
2023-09-27T09:15:37.254Z,15.30
2023-09-27T09:18:07.605Z,17.43
2023-09-27T09:20:49.948Z,19.83
2023-09-27T09:23:31.543Z,30.87
2023-09-27T09:26:00.001Z,16.97
2023-09-27T09:28:31.328Z,15.03
2023-09-27T09:30:58.759Z,15.47
2023-09-27T09:33:30.309Z,16.37
2023-09-27T09:35:57.695Z,17.87
2023-09-27T09:38:27.010Z,17.70
2023-09-27T09:40:58.561Z,15.93
2023-09-27T09:43:32.987Z,20.90
2023-09-27T09:46:02.266Z,14.33
2023-09-27T09:48:31.134Z,13.50
2023-09-27T09:51:02.989Z,14.23
2023-09-27T09:53:30.353Z,15.10
2023-09-27T09:58:36.989Z,12.53
2023-09-27T10:01:05.769Z,13.63
2023-09-27T10:03:36.961Z,13.77
2023-09-27T10:06:06.155Z,13.30
2023-09-27T10:08:40.259Z,14.20
2023-09-27T10:11:09.972Z,15.10
2023-09-27T10:13:40.217Z,14.23
2023-09-27T10:16:08.208Z,13.40
2023-09-27T10:18:47.917Z,12.90
2023-09-27T10:21:15.879Z,16.27
2023-09-27T10:23:51.556Z,12.77
2023-09-27T10:26:33.027Z,13.90
2023-09-27T10:29:14.750Z,11.37
2023-09-27T10:31:57.646Z,11.70
2023-09-27T10:34:29.149Z,17.40
2023-09-27T10:37:18.541Z,12.43
2023-09-27T10:40:06.954Z,11.50
2023-09-27T10:42:43.497Z,11.00
2023-09-27T10:45:11.434Z,10.97
2023-09-27T10:47:39.932Z,13.57
2023-09-27T10:50:07.436Z,11.80
2023-09-27T10:52:34.753Z,11.30
2023-09-27T10:55:12.169Z,13.23
2023-09-27T10:57:41.332Z,12.30
2023-09-27T11:00:12.999Z,10.63
2023-09-27T11:02:40.421Z,12.13
2023-09-27T11:05:09.331Z,10.50
2023-09-27T11:07:48.242Z,11.40
2023-09-27T11:10:20.073Z,10.10
2023-09-27T11:12:48.684Z,11.03
2023-09-27T11:15:23.902Z,11.20
2023-09-27T11:17:57.665Z,9.83
2023-09-27T11:20:25.938Z,9.63
2023-09-27T11:22:58.278Z,10.40
2023-09-27T11:25:34.030Z,9.70
2023-09-27T11:28:01.391Z,10.30
2023-09-27T11:30:31.313Z,12.27
2023-09-27T11:35:28.173Z,10.83
2023-09-27T11:38:07.570Z,11.03
2023-09-27T11:40:39.137Z,10.37
2023-09-27T11:43:08.953Z,9.63
2023-09-27T11:45:45.478Z,10.83
2023-09-27T11:48:13.734Z,10.80
2023-09-27T11:50:41.147Z,11.53
2023-09-27T11:53:08.428Z,9.40
2023-09-27T11:55:36.321Z,9.03
2023-09-27T11:58:03.726Z,15.20
2023-09-27T12:00:31.221Z,9.63
2023-09-27T12:02:59.300Z,10.33
2023-09-27T12:05:27.875Z,9.43
2023-09-27T12:07:56.217Z,10.50
2023-09-27T12:10:23.573Z,11.37
2023-09-27T12:12:50.864Z,10.97
2023-09-27T12:15:19.725Z,9.57
2023-09-27T12:17:46.991Z,9.87
2023-09-27T12:20:31.571Z,10.90
2023-09-27T12:22:59.596Z,8.70
2023-09-27T12:25:28.107Z,9.43
2023-09-27T12:27:55.982Z,9.10
2023-09-27T12:30:23.239Z,10.50
2023-09-27T12:32:52.274Z,9.23
2023-09-27T12:35:21.345Z,9.83
2023-09-27T12:37:48.947Z,9.67
2023-09-27T12:40:16.329Z,8.40
2023-09-27T12:42:43.737Z,10.57
2023-09-27T12:45:11.336Z,8.90
2023-09-27T12:47:40.040Z,8.20
2023-09-27T12:50:08.787Z,9.37
2023-09-27T12:52:36.065Z,9.00
2023-09-27T12:55:03.444Z,8.90
2023-09-27T12:57:30.925Z,8.17
2023-09-27T12:59:58.585Z,8.00
2023-09-27T13:02:26.587Z,7.30
2023-09-27T13:04:54.170Z,6.73
2023-09-27T13:07:21.341Z,8.13
2023-09-27T13:09:50.314Z,7.60
2023-09-27T13:12:18.793Z,7.20
2023-09-27T13:14:46.356Z,7.40
2023-09-27T13:17:13.763Z,8.23
2023-09-27T13:19:41.140Z,7.57
2023-09-27T13:22:08.312Z,7.37
2023-09-27T13:24:36.910Z,8.10
2023-09-27T13:27:04.106Z,7.57
2023-09-27T13:29:31.655Z,11.10
2023-09-27T13:31:59.376Z,7.43
2023-09-27T13:34:26.559Z,8.07
2023-09-27T13:36:53.795Z,7.30
2023-09-27T13:39:26.883Z,9.10
2023-09-27T13:41:54.424Z,8.07
2023-09-27T13:44:21.889Z,6.73
2023-09-27T13:46:50.163Z,9.00
2023-09-27T13:49:19.483Z,7.00
2023-09-27T13:51:46.778Z,7.60
2023-09-27T13:54:15.421Z,7.13
2023-09-27T13:56:43.050Z,6.90
2023-09-27T13:59:10.380Z,7.83
2023-09-27T14:01:38.060Z,7.77
2023-09-27T14:04:05.513Z,7.20
2023-09-27T14:06:32.804Z,8.30
2023-09-27T14:09:00.172Z,6.80
2023-09-27T14:11:27.500Z,6.40
2023-09-27T14:13:56.710Z,7.20
2023-09-27T14:16:24.183Z,9.50
2023-09-27T14:18:51.881Z,6.53
2023-09-27T14:21:19.380Z,6.83
2023-09-27T14:23:47.652Z,6.53
2023-09-27T14:26:16.285Z,6.47
2023-09-27T14:28:44.287Z,6.63
2023-09-27T14:31:12.016Z,5.97
2023-09-27T14:33:39.930Z,6.40
2023-09-27T14:36:07.215Z,6.40
2023-09-27T14:38:35.327Z,8.70
2023-09-27T14:41:08.099Z,5.83
2023-09-27T14:43:39.201Z,6.10
2023-09-27T14:46:11.151Z,5.70
2023-09-27T14:48:39.409Z,6.23
2023-09-27T14:51:08.675Z,5.80
2023-09-27T14:53:35.933Z,6.03
2023-09-27T14:56:09.992Z,5.70
2023-09-27T14:58:37.474Z,7.60
2023-09-27T15:01:05.304Z,7.20
2023-09-27T15:03:34.335Z,6.87
2023-09-27T15:06:02.521Z,7.13
2023-09-27T15:08:30.691Z,6.83
2023-09-27T15:10:58.127Z,6.23
2023-09-27T15:13:25.671Z,7.20
2023-09-27T15:15:52.987Z,5.70
2023-09-27T15:18:22.643Z,6.57
2023-09-27T15:20:51.497Z,6.60
2023-09-27T15:23:18.678Z,6.37
2023-09-27T15:25:46.056Z,7.40
2023-09-27T15:28:13.341Z,9.70
2023-09-27T15:30:41.945Z,7.90
2023-09-27T15:33:10.671Z,7.97
2023-09-27T15:35:41.080Z,5.70
2023-09-27T15:38:08.504Z,8.73
2023-09-27T15:40:35.727Z,7.73
2023-09-27T15:43:03.532Z,6.43
2023-09-27T15:45:31.201Z,9.03
2023-09-27T15:47:58.871Z,7.93
2023-09-27T15:50:27.060Z,10.07
2023-09-27T15:52:54.322Z,7.93
2023-09-27T15:55:21.750Z,9.10
2023-09-27T15:57:48.974Z,7.13
2023-09-27T16:00:17.150Z,9.30
2023-09-27T16:02:45.067Z,6.37
2023-09-27T16:05:13.554Z,7.60
2023-09-27T16:07:41.084Z,9.70
2023-09-27T16:10:15.686Z,7.97
2023-09-27T16:12:43.607Z,7.03
2023-09-27T16:15:11.576Z,7.23
2023-09-27T16:17:40.369Z,6.40
2023-09-27T16:20:11.953Z,7.27
2023-09-27T16:22:39.871Z,8.83
2023-09-27T16:25:08.395Z,10.07
2023-09-27T16:27:36.189Z,9.80
2023-09-27T16:30:04.279Z,9.30
2023-09-27T16:32:32.844Z,20.33
2023-09-27T16:35:00.553Z,8.40
2023-09-27T16:37:27.866Z,10.20
2023-09-27T16:39:56.744Z,9.13
2023-09-27T16:42:23.953Z,8.93
2023-09-27T16:44:51.114Z,14.30
2023-09-27T16:47:18.313Z,12.50
2023-09-27T16:49:45.563Z,10.57
2023-09-27T16:52:15.316Z,13.77
2023-09-27T16:54:43.969Z,13.60
2023-09-27T16:57:11.475Z,12.17
2023-09-27T16:59:39.772Z,14.03
2023-09-27T17:02:07.485Z,17.17
2023-09-27T17:04:34.865Z,14.20
2023-09-27T17:07:02.214Z,15.00
2023-09-27T17:09:29.589Z,10.80
2023-09-27T17:11:57.899Z,15.40
2023-09-27T17:14:25.108Z,14.07
2023-09-27T17:16:52.365Z,16.43
2023-09-27T17:19:24.782Z,14.57
2023-09-27T17:21:54.138Z,11.00
2023-09-27T17:24:22.069Z,13.87
2023-09-27T17:26:49.662Z,16.20
2023-09-27T17:29:17.449Z,12.60
2023-09-27T17:31:44.859Z,11.30
2023-09-27T17:34:13.461Z,14.63
2023-09-27T17:36:40.730Z,11.93
2023-09-27T17:39:08.165Z,11.37
2023-09-27T17:41:36.516Z,13.07
2023-09-27T17:44:03.814Z,19.23
2023-09-27T17:46:31.103Z,14.33
2023-09-27T17:48:58.945Z,15.27
2023-09-27T17:51:26.220Z,15.80
2023-09-27T17:53:53.796Z,11.97
2023-09-27T17:56:21.783Z,10.80
2023-09-27T17:58:49.527Z,13.07
2023-09-27T18:01:18.141Z,16.00
2023-09-27T18:03:46.482Z,14.50
2023-09-27T18:06:14.638Z,13.63
2023-09-27T18:08:42.316Z,13.77
2023-09-27T18:11:13.852Z,11.93
2023-09-27T18:13:41.787Z,15.13
2023-09-27T18:16:21.664Z,13.90
2023-09-27T18:18:49.844Z,14.83
2023-09-27T18:21:18.131Z,13.57
2023-09-27T18:23:45.715Z,21.30
2023-09-27T18:26:13.626Z,23.70
2023-09-27T18:28:41.027Z,21.33
2023-09-27T18:31:08.802Z,16.93
2023-09-27T18:33:36.115Z,16.20
2023-09-27T18:36:03.944Z,14.47
2023-09-27T18:38:31.366Z,14.70
2023-09-27T18:40:59.279Z,14.10
2023-09-27T18:43:26.712Z,14.93
2023-09-27T18:45:55.342Z,13.93
2023-09-27T18:48:23.063Z,15.73
2023-09-27T18:50:53.091Z,16.27
2023-09-27T18:53:21.047Z,14.53
2023-09-27T18:55:48.419Z,24.77
2023-09-27T18:58:15.927Z,20.40
2023-09-27T19:00:43.714Z,15.93
2023-09-27T19:03:14.202Z,15.40
2023-09-27T19:05:41.715Z,26.83
2023-09-27T19:08:09.016Z,16.17
2023-09-27T19:10:39.976Z,17.40
2023-09-27T19:13:07.340Z,14.90
2023-09-27T19:15:34.631Z,15.77
2023-09-27T19:18:02.140Z,16.70
2023-09-27T19:20:30.662Z,18.17
2023-09-27T19:22:58.650Z,18.50
2023-09-27T19:25:25.977Z,21.07
2023-09-27T19:27:54.652Z,20.47
2023-09-27T19:30:23.320Z,22.13
2023-09-27T19:32:51.734Z,19.10
2023-09-27T19:35:20.761Z,17.93
2023-09-27T19:37:48.524Z,20.60
2023-09-27T19:40:16.175Z,26.33
2023-09-27T19:42:43.879Z,17.07
2023-09-27T19:45:11.330Z,17.20
2023-09-27T19:47:38.883Z,22.47
2023-09-27T19:50:07.810Z,19.90
2023-09-27T19:52:38.339Z,19.77
2023-09-27T19:55:09.895Z,18.00
2023-09-27T19:57:37.154Z,17.00
2023-09-27T20:00:06.309Z,32.13
2023-09-27T20:02:36.840Z,19.87
2023-09-27T20:05:04.428Z,17.87
2023-09-27T20:07:35.285Z,20.60
2023-09-27T20:10:02.780Z,18.67
2023-09-27T20:12:30.031Z,19.20
2023-09-27T20:14:57.303Z,17.70
2023-09-27T20:17:24.832Z,19.70
2023-09-27T20:19:52.043Z,19.97
2023-09-27T20:22:20.384Z,22.20
2023-09-27T20:24:47.760Z,19.10
2023-09-27T20:27:16.128Z,20.03
2023-09-27T20:29:43.375Z,25.10
2023-09-27T20:32:10.631Z,23.67
2023-09-27T20:34:38.132Z,26.90
2023-09-27T20:37:05.397Z,20.00
2023-09-27T20:39:33.074Z,22.30
2023-09-27T20:42:01.319Z,19.97
2023-09-27T20:44:28.722Z,18.97
2023-09-27T20:46:56.159Z,19.67
2023-09-27T20:49:24.048Z,20.10
2023-09-27T20:51:52.351Z,21.60
2023-09-27T20:54:20.126Z,24.50
2023-09-27T20:56:48.756Z,19.83
2023-09-27T20:59:16.474Z,19.43
2023-09-27T21:01:44.942Z,19.90
2023-09-27T21:04:15.688Z,17.80
2023-09-27T21:06:43.136Z,20.53
2023-09-27T21:09:11.486Z,18.60
2023-09-27T21:11:39.988Z,39.40
2023-09-27T21:14:07.657Z,16.80
2023-09-27T21:16:35.215Z,17.30
2023-09-27T21:19:02.646Z,18.53
2023-09-27T21:21:32.889Z,20.27
2023-09-27T21:24:00.143Z,22.20
2023-09-27T21:26:27.872Z,17.13
2023-09-27T21:28:55.261Z,17.87
2023-09-27T21:31:22.725Z,19.30
2023-09-27T21:33:50.074Z,22.57
2023-09-27T21:36:18.505Z,22.13
2023-09-27T21:38:45.864Z,20.40
2023-09-27T21:41:14.943Z,19.20
2023-09-27T21:43:42.330Z,17.67
2023-09-27T21:46:19.282Z,17.20
2023-09-27T21:48:48.862Z,18.47
2023-09-27T21:51:16.636Z,17.63
2023-09-27T21:53:43.954Z,21.13
2023-09-27T21:56:11.608Z,19.57
2023-09-27T21:58:38.966Z,17.83
2023-09-27T22:01:15.993Z,19.90
2023-09-27T22:03:43.507Z,18.83
2023-09-27T22:06:11.841Z,17.60
2023-09-27T22:08:39.198Z,18.60
2023-09-27T22:11:08.767Z,18.40
2023-09-27T22:13:39.156Z,19.90
2023-09-27T22:16:11.125Z,16.57
2023-09-27T22:18:51.221Z,17.83
2023-09-27T22:21:45.880Z,18.30
2023-09-27T22:24:16.792Z,17.00
2023-09-27T22:26:53.320Z,16.37
2023-09-27T22:29:20.824Z,18.43
2023-09-27T22:31:48.551Z,20.07
2023-09-27T22:34:25.368Z,20.03
2023-09-27T22:36:53.036Z,20.80
2023-09-27T22:39:20.809Z,18.60
2023-09-27T22:41:49.607Z,19.67
2023-09-27T22:44:20.869Z,20.60
2023-09-27T22:46:51.042Z,16.90
2023-09-27T22:49:20.827Z,17.90
2023-09-27T22:51:49.154Z,17.50
2023-09-27T22:54:17.492Z,18.00
2023-09-27T22:56:45.363Z,17.53
2023-09-27T22:59:13.265Z,16.07
2023-09-27T23:01:41.264Z,17.60
2023-09-27T23:04:16.362Z,14.77
2023-09-27T23:06:48.972Z,16.37
2023-09-27T23:09:25.692Z,18.40
2023-09-27T23:12:13.526Z,15.77
2023-09-27T23:15:00.829Z,14.90
2023-09-27T23:17:33.755Z,15.73
2023-09-27T23:20:02.252Z,15.60
2023-09-27T23:22:49.836Z,18.37
2023-09-27T23:25:35.873Z,14.47
2023-09-27T23:28:04.419Z,15.07
2023-09-27T23:30:33.762Z,14.53
2023-09-27T23:33:03.190Z,14.67
2023-09-27T23:35:33.979Z,12.77
2023-09-27T23:38:30.539Z,13.93
2023-09-27T23:40:59.624Z,14.87
2023-09-27T23:43:38.680Z,13.63
2023-09-27T23:46:07.856Z,14.57
2023-09-27T23:48:36.197Z,15.47
2023-09-27T23:51:04.488Z,15.53
2023-09-27T23:53:31.895Z,14.60
2023-09-27T23:56:01.158Z,15.97
2023-09-27T23:58:33.466Z,16.37
